Time;durP1;ratioP1;P1;durP2;ratioP2;P2;SDS_P1;SDS_P2;PMS_P1;PMS_P2;Temp;Humidity;BMP_temperature;BMP_pressure;BME280_temperature;BME280_humidity;BME280_pressure;Samples;Min_cycle;Max_cycle;Signal;HPM_P1;HPM_P2
2023/09/22 06:01:35;;;;;;;2.97;1.37;;;;;;;;;;5426947;23;20525;-70
2023/09/22 06:04:04;;;;;;;5.20;2.00;;;;;;;;;;4979360;28;20435;-71
2023/09/22 06:06:31;;;;;;;2.80;1.70;;;;;;;;;;4965812;28;20435;-71
2023/09/22 06:09:03;;;;;;;4.00;1.87;;;;;;;;;;4978833;28;20836;-71
2023/09/22 06:11:29;;;;;;;3.30;2.30;;;;;;;;;;4969550;28;20541;-70
2023/09/22 06:13:55;;;;;;;1.73;1.40;;;;;;;;;;4960143;29;20433;-73
2023/09/22 06:16:24;;;;;;;4.47;1.73;;;;;;;;;;4956779;29;20983;-73
2023/09/22 06:18:49;;;;;;;4.23;1.50;;;;;;;;;;4957213;28;20409;-72
2023/09/22 06:21:15;;;;;;;13.83;2.43;;;;;;;;;;4956562;29;20851;-70
2023/09/22 06:23:41;;;;;;;2.70;2.00;;;;;;;;;;4947755;29;20433;-69
2023/09/22 06:26:10;;;;;;;3.77;1.73;;;;;;;;;;4961526;28;20467;-69
2023/09/22 06:28:38;;;;;;;4.27;1.90;;;;;;;;;;4959072;28;20429;-69
2023/09/22 06:31:04;;;;;;;8.40;2.10;;;;;;;;;;4953755;28;20449;-69
2023/09/22 06:33:30;;;;;;;5.37;1.93;;;;;;;;;;4954300;29;20425;-74
2023/09/22 06:35:57;;;;;;;4.37;2.13;;;;;;;;;;4955822;29;20483;-70
2023/09/22 06:38:23;;;;;;;4.80;1.93;;;;;;;;;;4952147;29;20925;-71
2023/09/22 06:40:54;;;;;;;4.53;2.07;;;;;;;;;;4936612;29;20473;-70
2023/09/22 06:43:23;;;;;;;3.73;1.87;;;;;;;;;;4935929;29;20421;-70
2023/09/22 06:45:51;;;;;;;5.47;2.17;;;;;;;;;;4937274;29;20981;-70
2023/09/22 06:48:17;;;;;;;6.33;2.30;;;;;;;;;;4936813;29;20789;-70
2023/09/22 06:50:43;;;;;;;3.20;1.90;;;;;;;;;;4936752;29;20445;-70
2023/09/22 06:53:11;;;;;;;4.63;3.10;;;;;;;;;;4936636;29;20422;-70
2023/09/22 06:55:37;;;;;;;6.63;2.60;;;;;;;;;;4936471;29;20429;-70
2023/09/22 06:58:06;;;;;;;4.20;2.10;;;;;;;;;;4936338;29;20425;-70
2023/09/22 07:00:32;;;;;;;10.10;2.40;;;;;;;;;;4936374;29;20458;-69
2023/09/22 07:02:57;;;;;;;7.63;2.50;;;;;;;;;;4936292;29;20748;-69
2023/09/22 07:05:24;;;;;;;4.60;2.43;;;;;;;;;;4936250;29;20473;-69
2023/09/22 07:07:50;;;;;;;4.93;2.17;;;;;;;;;;4936163;29;20406;-69
2023/09/22 07:10:16;;;;;;;4.77;2.63;;;;;;;;;;4936161;29;20406;-69
2023/09/22 07:12:42;;;;;;;7.40;2.57;;;;;;;;;;4936154;29;20747;-69
2023/09/22 07:15:09;;;;;;;5.53;2.17;;;;;;;;;;4935847;29;20477;-69
2023/09/22 07:17:36;;;;;;;3.87;1.90;;;;;;;;;;4935989;29;20414;-69
2023/09/22 07:20:03;;;;;;;8.70;3.20;;;;;;;;;;4936094;29;20414;-70
2023/09/22 07:22:32;;;;;;;9.03;2.60;;;;;;;;;;4935951;29;20441;-70
2023/09/22 07:24:59;;;;;;;4.33;2.73;;;;;;;;;;4938464;29;20465;-70
2023/09/22 07:27:25;;;;;;;3.37;2.33;;;;;;;;;;4937557;29;20421;-70
2023/09/22 07:29:51;;;;;;;7.80;2.50;;;;;;;;;;4935987;29;20413;-69
2023/09/22 07:32:17;;;;;;;5.53;2.20;;;;;;;;;;4935760;29;20528;-69
2023/09/22 07:34:43;;;;;;;3.77;1.67;;;;;;;;;;4935570;29;20850;-70
2023/09/22 07:37:11;;;;;;;5.50;2.50;;;;;;;;;;4935412;29;20420;-69
2023/09/22 07:39:37;;;;;;;5.83;2.70;;;;;;;;;;4935582;29;20413;-70
2023/09/22 07:42:03;;;;;;;3.60;2.23;;;;;;;;;;4935499;29;20447;-70
2023/09/22 07:44:30;;;;;;;3.33;2.03;;;;;;;;;;4935266;29;20911;-70
2023/09/22 07:46:58;;;;;;;3.23;2.27;;;;;;;;;;4934221;29;20418;-70
2023/09/22 07:49:25;;;;;;;6.30;2.63;;;;;;;;;;4935494;29;20468;-70
2023/09/22 07:51:51;;;;;;;2.87;2.20;;;;;;;;;;4935567;29;20440;-69
2023/09/22 07:54:18;;;;;;;2.33;2.10;;;;;;;;;;4935326;29;20421;-71
2023/09/22 07:56:46;;;;;;;6.60;2.07;;;;;;;;;;4935343;29;20410;-71
2023/09/22 07:59:14;;;;;;;5.83;2.40;;;;;;;;;;4934267;29;20418;-69
2023/09/22 08:01:42;;;;;;;8.80;2.40;;;;;;;;;;4935038;29;20461;-68
2023/09/22 08:04:09;;;;;;;9.93;2.67;;;;;;;;;;4935133;29;20414;-69
2023/09/22 08:06:35;;;;;;;7.27;3.60;;;;;;;;;;4935177;29;20457;-69
2023/09/22 08:09:03;;;;;;;4.70;2.27;;;;;;;;;;4934207;29;20454;-68
2023/09/22 08:11:29;;;;;;;4.80;2.20;;;;;;;;;;4935096;29;20580;-68
2023/09/22 08:13:58;;;;;;;4.20;2.20;;;;;;;;;;4934729;29;20417;-69
2023/09/22 08:16:24;;;;;;;2.87;1.87;;;;;;;;;;4935061;29;20525;-68
2023/09/22 08:18:50;;;;;;;3.43;1.67;;;;;;;;;;4934873;29;20461;-68
2023/09/22 08:21:16;;;;;;;2.90;1.70;;;;;;;;;;4934958;29;20469;-68
2023/09/22 08:23:42;;;;;;;4.77;1.63;;;;;;;;;;4934557;29;20426;-67
2023/09/22 08:26:08;;;;;;;5.60;2.53;;;;;;;;;;4934858;29;20807;-70
2023/09/22 08:28:34;;;;;;;3.30;1.90;;;;;;;;;;4933249;29;20424;-68
2023/09/22 08:31:00;;;;;;;1.93;1.90;;;;;;;;;;4934643;29;20862;-68
2023/09/22 08:33:27;;;;;;;4.13;2.00;;;;;;;;;;4934326;29;20418;-68
2023/09/22 08:35:52;;;;;;;4.83;1.93;;;;;;;;;;4934498;29;20473;-67
2023/09/22 08:38:18;;;;;;;1.53;1.43;;;;;;;;;;4934591;29;20421;-69
2023/09/22 08:40:47;;;;;;;2.53;1.73;;;;;;;;;;4934416;29;20444;-68
2023/09/22 08:43:14;;;;;;;4.83;1.93;;;;;;;;;;4934220;29;20801;-68
2023/09/22 08:45:40;;;;;;;4.90;2.17;;;;;;;;;;4934608;29;20465;-68
2023/09/22 08:48:07;;;;;;;3.50;1.80;;;;;;;;;;4934364;29;20417;-69
2023/09/22 08:50:33;;;;;;;2.13;1.30;;;;;;;;;;4934235;29;20434;-68
2023/09/22 08:53:00;;;;;;;4.27;2.27;;;;;;;;;;4934259;29;20465;-68
2023/09/22 08:55:26;;;;;;;2.67;1.70;;;;;;;;;;4934454;29;20422;-69
2023/09/22 08:57:53;;;;;;;5.17;1.83;;;;;;;;;;4934461;29;20418;-69
2023/09/22 09:00:26;;;;;;;2.93;2.13;;;;;;;;;;4934267;29;20414;-68
2023/09/22 09:02:52;;;;;;;3.90;2.23;;;;;;;;;;4934187;29;20473;-68
2023/09/22 09:05:21;;;;;;;3.80;1.40;;;;;;;;;;4932732;29;20465;-69
2023/09/22 09:07:48;;;;;;;4.90;1.70;;;;;;;;;;4934374;29;20414;-69
2023/09/22 09:10:34;;;;;;;2.80;1.83;;;;;;;;;;4934383;29;20414;-68
2023/09/22 09:13:03;;;;;;;3.13;1.67;;;;;;;;;;4934135;29;20413;-69
2023/09/22 09:15:49;;;;;;;6.43;1.70;;;;;;;;;;4934133;29;20793;-68
2023/09/22 09:18:16;;;;;;;3.40;1.60;;;;;;;;;;4934043;29;20413;-68
2023/09/22 09:20:43;;;;;;;11.33;1.50;;;;;;;;;;4937087;29;20767;-68
2023/09/22 09:23:12;;;;;;;3.90;1.40;;;;;;;;;;4937529;29;20500;-68
2023/09/22 09:25:53;;;;;;;6.93;1.70;;;;;;;;;;4938085;29;20540;-68
2023/09/22 09:28:19;;;;;;;2.43;1.47;;;;;;;;;;4938146;29;20418;-68
2023/09/22 09:30:52;;;;;;;3.80;1.50;;;;;;;;;;4938067;29;20444;-68
2023/09/22 09:33:32;;;;;;;3.50;2.03;;;;;;;;;;4939565;29;20828;-67
2023/09/22 09:35:58;;;;;;;2.50;1.50;;;;;;;;;;4938116;29;20413;-69
2023/09/22 09:38:25;;;;;;;4.10;2.07;;;;;;;;;;4937964;29;20417;-69
2023/09/22 09:40:52;;;;;;;3.57;1.93;;;;;;;;;;4937908;29;20441;-68
2023/09/22 09:43:17;;;;;;;3.10;1.50;;;;;;;;;;4937497;29;20417;-68
2023/09/22 09:45:47;;;;;;;3.30;1.50;;;;;;;;;;4937566;29;20479;-69
2023/09/22 09:48:16;;;;;;;6.20;2.03;;;;;;;;;;4937980;29;20437;-69
2023/09/22 09:50:46;;;;;;;2.00;0.93;;;;;;;;;;4937819;29;20878;-68
2023/09/22 09:53:15;;;;;;;4.60;1.87;;;;;;;;;;4937189;29;20413;-68
2023/09/22 09:55:43;;;;;;;4.83;1.40;;;;;;;;;;4937419;29;20413;-68
2023/09/22 09:58:11;;;;;;;3.17;1.67;;;;;;;;;;4936335;29;20920;-69
2023/09/22 10:00:38;;;;;;;5.60;1.50;;;;;;;;;;4936972;29;20465;-69
2023/09/22 10:03:04;;;;;;;5.23;1.43;;;;;;;;;;4937580;29;20421;-70
2023/09/22 10:05:32;;;;;;;3.17;1.57;;;;;;;;;;4936975;29;20569;-68
2023/09/22 10:07:58;;;;;;;3.17;1.73;;;;;;;;;;4937350;29;20409;-69
2023/09/22 10:10:26;;;;;;;2.50;1.67;;;;;;;;;;4937192;29;20425;-69
2023/09/22 10:12:52;;;;;;;2.63;1.50;;;;;;;;;;4937151;29;20413;-68
2023/09/22 10:15:38;;;;;;;3.20;1.53;;;;;;;;;;4935854;29;20428;-69
2023/09/22 10:18:04;;;;;;;3.90;1.53;;;;;;;;;;4937242;29;20821;-69
2023/09/22 10:20:44;;;;;;;2.03;1.20;;;;;;;;;;4937117;29;20899;-69
2023/09/22 10:23:18;;;;;;;2.00;1.07;;;;;;;;;;4937823;29;20772;-69
2023/09/22 10:26:04;;;;;;;1.93;1.30;;;;;;;;;;4937210;29;20601;-68
2023/09/22 10:28:29;;;;;;;3.40;1.20;;;;;;;;;;4937438;29;20801;-67
2023/09/22 10:30:58;;;;;;;7.00;1.30;;;;;;;;;;4936086;29;20432;-67
2023/09/22 10:33:29;;;;;;;4.20;1.07;;;;;;;;;;4936644;29;20865;-68
2023/09/22 10:35:55;;;;;;;2.17;1.30;;;;;;;;;;4936948;29;20436;-68
2023/09/22 10:38:21;;;;;;;3.97;1.30;;;;;;;;;;4936924;29;20901;-69
2023/09/22 10:41:03;;;;;;;4.00;1.30;;;;;;;;;;4935381;29;20441;-68
2023/09/22 10:43:30;;;;;;;4.23;1.50;;;;;;;;;;4936461;29;20436;-68
2023/09/22 10:45:56;;;;;;;4.10;1.30;;;;;;;;;;4935331;29;20474;-68
2023/09/22 10:48:22;;;;;;;1.63;1.00;;;;;;;;;;4936821;29;20810;-69
2023/09/22 10:50:53;;;;;;;1.73;1.30;;;;;;;;;;4936703;29;20433;-69
2023/09/22 10:53:20;;;;;;;1.80;1.40;;;;;;;;;;4936152;29;20469;-68
2023/09/22 10:55:46;;;;;;;2.30;1.20;;;;;;;;;;4936433;29;20417;-68
2023/09/22 10:58:23;;;;;;;2.23;1.10;;;;;;;;;;4936232;29;20413;-70
2023/09/22 11:00:57;;;;;;;4.23;1.20;;;;;;;;;;4936023;29;20509;-69
2023/09/22 11:03:23;;;;;;;2.10;0.90;;;;;;;;;;4935920;29;20428;-69
2023/09/22 11:06:10;;;;;;;1.93;1.20;;;;;;;;;;4936299;29;20635;-68
2023/09/22 11:08:52;;;;;;;2.40;1.20;;;;;;;;;;4936228;29;20409;-68
2023/09/22 11:11:18;;;;;;;2.60;1.30;;;;;;;;;;4936100;29;20432;-69
2023/09/22 11:13:54;;;;;;;2.10;1.03;;;;;;;;;;4935860;29;20465;-69
2023/09/22 11:16:20;;;;;;;2.70;1.03;;;;;;;;;;4935927;29;20488;-69
2023/09/22 11:18:47;;;;;;;4.43;1.63;;;;;;;;;;4935910;29;20433;-68
2023/09/22 11:21:13;;;;;;;2.80;1.30;;;;;;;;;;4935898;29;20452;-68
2023/09/22 11:23:39;;;;;;;3.77;1.80;;;;;;;;;;4935640;29;20930;-67
2023/09/22 11:26:10;;;;;;;6.30;1.80;;;;;;;;;;4935772;29;20624;-68
2023/09/22 11:28:45;;;;;;;1.97;1.00;;;;;;;;;;4935986;29;20425;-67
2023/09/22 11:31:19;;;;;;;2.47;1.20;;;;;;;;;;4934743;29;20441;-69
2023/09/22 11:33:45;;;;;;;4.60;1.27;;;;;;;;;;4936469;29;20472;-70
2023/09/22 11:36:12;;;;;;;2.13;1.30;;;;;;;;;;4936041;29;20988;-69
2023/09/22 11:38:45;;;;;;;2.20;1.27;;;;;;;;;;4935451;29;20418;-69
2023/09/22 11:41:16;;;;;;;2.67;1.50;;;;;;;;;;4935285;29;20426;-70
2023/09/22 11:43:43;;;;;;;2.43;1.60;;;;;;;;;;4935232;29;20520;-69
2023/09/22 11:46:15;;;;;;;2.53;1.50;;;;;;;;;;4935092;29;20465;-68
2023/09/22 11:49:05;;;;;;;3.33;1.10;;;;;;;;;;4935264;29;20528;-68
2023/09/22 11:51:40;;;;;;;2.30;1.30;;;;;;;;;;4934906;29;20434;-70
2023/09/22 11:54:07;;;;;;;2.33;1.53;;;;;;;;;;4934991;29;20415;-68
2023/09/22 11:56:33;;;;;;;2.57;1.40;;;;;;;;;;4935521;29;20414;-68
2023/09/22 11:59:09;;;;;;;3.00;1.53;;;;;;;;;;4935720;29;20486;-68
2023/09/22 12:01:35;;;;;;;4.23;1.30;;;;;;;;;;4935676;29;20944;-69
2023/09/22 12:04:01;;;;;;;1.90;1.17;;;;;;;;;;4935488;29;20525;-70
2023/09/22 12:06:28;;;;;;;4.20;1.40;;;;;;;;;;4935194;29;20471;-71
2023/09/22 12:08:54;;;;;;;3.13;1.40;;;;;;;;;;4935185;29;20417;-71
2023/09/22 12:11:23;;;;;;;2.07;1.33;;;;;;;;;;4935348;29;20425;-71
2023/09/22 12:13:49;;;;;;;3.07;1.67;;;;;;;;;;4952772;23;20424;-72
2023/09/22 12:16:15;;;;;;;2.83;1.50;;;;;;;;;;4973458;28;20487;-72
2023/09/22 12:18:41;;;;;;;2.63;1.90;;;;;;;;;;4972992;28;20921;-72
2023/09/22 12:21:07;;;;;;;2.43;1.20;;;;;;;;;;4973200;28;20427;-72
2023/09/22 12:23:36;;;;;;;2.80;1.33;;;;;;;;;;4972710;28;20844;-72
2023/09/22 12:26:02;;;;;;;3.33;1.37;;;;;;;;;;4973295;28;20459;-72
2023/09/22 12:28:28;;;;;;;2.70;2.10;;;;;;;;;;4973006;28;20563;-72
2023/09/22 12:30:54;;;;;;;5.60;2.00;;;;;;;;;;4973173;28;20408;-72
2023/09/22 12:33:20;;;;;;;3.80;1.80;;;;;;;;;;4972753;28;20499;-72
2023/09/22 12:35:54;;;;;;;3.43;1.50;;;;;;;;;;4973166;28;20599;-72
2023/09/22 12:38:20;;;;;;;4.23;1.50;;;;;;;;;;4971540;28;20431;-71
2023/09/22 12:40:46;;;;;;;1.70;1.37;;;;;;;;;;4971465;28;20427;-73
2023/09/22 12:43:12;;;;;;;3.80;1.60;;;;;;;;;;4972190;28;20422;-73
2023/09/22 12:45:39;;;;;;;3.87;1.50;;;;;;;;;;4972394;28;20464;-73
2023/09/22 12:48:05;;;;;;;8.13;2.97;;;;;;;;;;4972628;28;20848;-73
2023/09/22 12:50:31;;;;;;;4.13;1.50;;;;;;;;;;4972704;28;20444;-71
2023/09/22 12:52:58;;;;;;;2.27;1.20;;;;;;;;;;4972525;28;20471;-73
2023/09/22 12:55:24;;;;;;;6.70;1.00;;;;;;;;;;4971873;28;20954;-73
2023/09/22 12:57:50;;;;;;;3.60;1.30;;;;;;;;;;4972757;28;20415;-73
2023/09/22 13:00:16;;;;;;;2.50;1.73;;;;;;;;;;4971073;28;20831;-73
2023/09/22 13:02:43;;;;;;;3.60;1.67;;;;;;;;;;4970910;28;20432;-73
2023/09/22 13:05:11;;;;;;;2.07;1.20;;;;;;;;;;4972320;28;20989;-73
2023/09/22 13:07:37;;;;;;;4.70;1.70;;;;;;;;;;4972712;28;20416;-73
2023/09/22 13:10:08;;;;;;;2.07;1.30;;;;;;;;;;4972526;28;20495;-73
2023/09/22 13:12:36;;;;;;;5.37;1.50;;;;;;;;;;4972447;28;20491;-73
2023/09/22 13:15:02;;;;;;;5.47;1.67;;;;;;;;;;4970810;28;20559;-73
2023/09/22 13:17:28;;;;;;;5.67;1.70;;;;;;;;;;4972572;28;20497;-73
2023/09/22 13:19:54;;;;;;;4.13;1.63;;;;;;;;;;4972357;28;20416;-72
2023/09/22 13:22:23;;;;;;;4.00;1.40;;;;;;;;;;4972173;28;20887;-72
2023/09/22 13:24:49;;;;;;;2.50;1.50;;;;;;;;;;4972039;28;20475;-72
2023/09/22 13:27:15;;;;;;;5.40;2.13;;;;;;;;;;4972480;28;20428;-72
2023/09/22 13:29:41;;;;;;;3.63;1.33;;;;;;;;;;4972280;28;20430;-72
2023/09/22 13:32:09;;;;;;;5.70;1.70;;;;;;;;;;4972261;28;20764;-73
2023/09/22 13:34:35;;;;;;;6.00;1.97;;;;;;;;;;4972227;28;20487;-72
2023/09/22 13:37:02;;;;;;;5.47;1.73;;;;;;;;;;4972912;28;20471;-72
2023/09/22 13:39:29;;;;;;;2.57;1.57;;;;;;;;;;4972847;28;20408;-72
2023/09/22 13:41:54;;;;;;;4.57;1.40;;;;;;;;;;4972604;28;20444;-72
2023/09/22 13:44:21;;;;;;;2.63;1.30;;;;;;;;;;4972048;28;20475;-72
2023/09/22 13:46:47;;;;;;;2.43;1.30;;;;;;;;;;4972115;28;20499;-72
2023/09/22 13:49:13;;;;;;;4.03;1.80;;;;;;;;;;4972154;28;20415;-72
2023/09/22 13:51:40;;;;;;;5.80;1.97;;;;;;;;;;4971884;28;20415;-72
2023/09/22 13:54:06;;;;;;;3.87;1.57;;;;;;;;;;4971859;28;20923;-72
2023/09/22 13:56:33;;;;;;;2.50;1.50;;;;;;;;;;4972185;28;20848;-72
2023/09/22 13:58:59;;;;;;;2.40;1.33;;;;;;;;;;4972085;28;20735;-72
2023/09/22 14:01:25;;;;;;;5.40;2.10;;;;;;;;;;4971945;28;20408;-72
2023/09/22 14:03:52;;;;;;;4.70;1.50;;;;;;;;;;4971826;28;20436;-72
2023/09/22 14:06:21;;;;;;;3.90;1.70;;;;;;;;;;4974056;28;20461;-72
2023/09/22 14:08:49;;;;;;;4.23;1.60;;;;;;;;;;4975813;28;20422;-72
2023/09/22 14:11:16;;;;;;;6.13;1.60;;;;;;;;;;4975603;28;20451;-72
2023/09/22 14:13:43;;;;;;;4.00;2.03;;;;;;;;;;4973808;28;20431;-72
2023/09/22 14:16:09;;;;;;;3.27;1.30;;;;;;;;;;4975382;28;20834;-72
2023/09/22 14:18:35;;;;;;;4.97;1.60;;;;;;;;;;4975461;28;20412;-72
2023/09/22 14:21:01;;;;;;;2.87;1.50;;;;;;;;;;4975326;28;20423;-72
2023/09/22 14:23:28;;;;;;;2.07;1.80;;;;;;;;;;4974949;28;20753;-73
2023/09/22 14:25:54;;;;;;;4.93;1.77;;;;;;;;;;4975079;28;20459;-72
2023/09/22 14:28:20;;;;;;;3.87;1.90;;;;;;;;;;4975382;28;20907;-73
2023/09/22 14:30:46;;;;;;;7.00;2.10;;;;;;;;;;4975533;28;20416;-73
2023/09/22 14:33:12;;;;;;;7.50;2.20;;;;;;;;;;4975114;28;21012;-73
2023/09/22 14:35:38;;;;;;;5.90;2.50;;;;;;;;;;4975227;28;20565;-73
2023/09/22 14:38:04;;;;;;;4.63;1.60;;;;;;;;;;4975193;28;20415;-73
2023/09/22 14:40:30;;;;;;;2.47;1.70;;;;;;;;;;4975073;28;20416;-73
2023/09/22 14:42:58;;;;;;;4.27;1.80;;;;;;;;;;4974864;28;20416;-73
2023/09/22 14:45:24;;;;;;;2.60;1.97;;;;;;;;;;4974673;28;20459;-73
2023/09/22 14:47:51;;;;;;;5.57;2.30;;;;;;;;;;4974826;28;20786;-73
2023/09/22 14:50:25;;;;;;;5.07;1.87;;;;;;;;;;4974777;28;20440;-73
2023/09/22 14:52:52;;;;;;;6.93;2.80;;;;;;;;;;4974660;28;20883;-73
2023/09/22 14:55:18;;;;;;;4.73;2.27;;;;;;;;;;4974868;28;20483;-73
2023/09/22 14:57:44;;;;;;;6.03;2.50;;;;;;;;;;4977081;28;20416;-73
2023/09/22 15:00:12;;;;;;;3.93;2.30;;;;;;;;;;4982965;28;20434;-73
2023/09/22 15:02:40;;;;;;;6.17;3.03;;;;;;;;;;4980106;28;20428;-73
2023/09/22 15:05:06;;;;;;;6.30;2.50;;;;;;;;;;4975209;28;20479;-73
2023/09/22 15:07:32;;;;;;;4.07;1.87;;;;;;;;;;4974718;28;20910;-73
2023/09/22 15:09:58;;;;;;;2.10;1.37;;;;;;;;;;4975399;28;20412;-73
2023/09/22 15:12:25;;;;;;;3.70;2.00;;;;;;;;;;4975406;28;20403;-73
2023/09/22 15:14:54;;;;;;;4.30;1.73;;;;;;;;;;4974994;28;20451;-73
2023/09/22 15:17:20;;;;;;;3.27;1.80;;;;;;;;;;4972538;28;20490;-71
2023/09/22 15:19:50;;;;;;;5.33;2.40;;;;;;;;;;4973978;28;20787;-71
2023/09/22 15:22:16;;;;;;;3.83;1.87;;;;;;;;;;4967540;28;20436;-69
2023/09/22 15:24:42;;;;;;;7.03;2.13;;;;;;;;;;4970888;28;20463;-65
2023/09/22 15:27:08;;;;;;;5.23;2.37;;;;;;;;;;4974089;28;20408;-64
2023/09/22 15:29:34;;;;;;;5.63;2.00;;;;;;;;;;4974121;28;20880;-64
2023/09/22 15:32:00;;;;;;;4.87;1.60;;;;;;;;;;4973117;28;20840;-66
2023/09/22 15:34:26;;;;;;;3.90;1.63;;;;;;;;;;4956254;28;20855;-64
2023/09/22 15:36:52;;;;;;;2.30;1.40;;;;;;;;;;4957797;29;20444;-63
2023/09/22 15:39:18;;;;;;;3.40;1.13;;;;;;;;;;4958216;29;20413;-64
2023/09/22 15:41:44;;;;;;;4.53;1.30;;;;;;;;;;4973636;28;20443;-65
2023/09/22 15:44:10;;;;;;;1.50;1.07;;;;;;;;;;4973996;28;20436;-65
2023/09/22 15:46:36;;;;;;;2.23;1.10;;;;;;;;;;4973958;28;20467;-65
2023/09/22 15:49:03;;;;;;;2.87;1.17;;;;;;;;;;4973837;28;20411;-65
2023/09/22 15:51:31;;;;;;;1.40;1.10;;;;;;;;;;4971717;28;20911;-64
2023/09/22 15:53:58;;;;;;;7.57;1.37;;;;;;;;;;4954508;28;20456;-65
2023/09/22 15:56:23;;;;;;;4.30;1.20;;;;;;;;;;4954298;29;20415;-65
2023/09/22 15:58:49;;;;;;;1.70;1.00;;;;;;;;;;4955048;28;20623;-65
2023/09/22 16:01:15;;;;;;;3.33;1.33;;;;;;;;;;4973940;28;20462;-66
2023/09/22 16:03:42;;;;;;;2.97;1.10;;;;;;;;;;4973140;28;20440;-64
2023/09/22 16:06:08;;;;;;;2.63;1.43;;;;;;;;;;4973199;28;20460;-64
2023/09/22 16:08:35;;;;;;;1.73;1.17;;;;;;;;;;4973568;28;20415;-64
2023/09/22 16:11:01;;;;;;;2.13;1.10;;;;;;;;;;4973607;28;20415;-64
2023/09/22 16:13:27;;;;;;;2.07;1.27;;;;;;;;;;4973092;28;20408;-64
2023/09/22 16:15:53;;;;;;;2.80;1.33;;;;;;;;;;4973342;28;20502;-64
2023/09/22 16:18:19;;;;;;;1.63;1.23;;;;;;;;;;4969267;28;20433;-64
2023/09/22 16:20:45;;;;;;;1.97;1.10;;;;;;;;;;4953887;28;20789;-65
2023/09/22 16:23:12;;;;;;;5.93;1.20;;;;;;;;;;4954084;29;20409;-72
2023/09/22 16:25:38;;;;;;;4.10;1.33;;;;;;;;;;4954393;28;20555;-72
2023/09/22 16:28:04;;;;;;;2.40;1.40;;;;;;;;;;4954098;29;20505;-72
2023/09/22 16:30:30;;;;;;;2.40;1.50;;;;;;;;;;4953093;28;20412;-71
2023/09/22 16:32:55;;;;;;;2.20;1.33;;;;;;;;;;4953923;29;20896;-72
2023/09/22 16:35:21;;;;;;;2.37;1.47;;;;;;;;;;4953536;29;20515;-72
2023/09/22 16:37:47;;;;;;;1.40;1.10;;;;;;;;;;4953875;29;20455;-72
2023/09/22 16:40:13;;;;;;;2.93;1.23;;;;;;;;;;4953836;29;20405;-73
2023/09/22 16:42:39;;;;;;;2.37;1.77;;;;;;;;;;4953651;29;20759;-72
2023/09/22 16:45:06;;;;;;;5.60;1.83;;;;;;;;;;4954747;28;20476;-71
2023/09/22 16:47:32;;;;;;;1.80;1.20;;;;;;;;;;4953885;28;20436;-72
2023/09/22 16:49:58;;;;;;;2.90;1.80;;;;;;;;;;4954664;29;20413;-72
2023/09/22 16:52:24;;;;;;;1.80;1.13;;;;;;;;;;4953824;29;20413;-72
2023/09/22 16:54:50;;;;;;;2.00;1.13;;;;;;;;;;4953706;29;20766;-72
2023/09/22 16:57:16;;;;;;;2.60;1.30;;;;;;;;;;4956862;28;20778;-71
2023/09/22 16:59:43;;;;;;;2.10;1.43;;;;;;;;;;4971759;28;20427;-71
2023/09/22 17:02:09;;;;;;;3.80;1.60;;;;;;;;;;4972591;28;20426;-71
2023/09/22 17:04:35;;;;;;;2.60;1.23;;;;;;;;;;4972651;28;20444;-71
2023/09/22 17:07:03;;;;;;;3.00;1.40;;;;;;;;;;4972862;28;20523;-71
2023/09/22 17:09:29;;;;;;;3.03;1.30;;;;;;;;;;4954135;28;20432;-72
2023/09/22 17:11:55;;;;;;;1.97;1.70;;;;;;;;;;4953496;29;20413;-72
2023/09/22 17:14:21;;;;;;;2.93;1.60;;;;;;;;;;4953273;28;20543;-72
2023/09/22 17:16:47;;;;;;;2.80;1.70;;;;;;;;;;4954295;28;20924;-72
2023/09/22 17:19:13;;;;;;;3.53;1.80;;;;;;;;;;4953295;29;20413;-72
2023/09/22 17:21:39;;;;;;;4.37;1.90;;;;;;;;;;4954303;29;20939;-72
2023/09/22 17:24:05;;;;;;;2.10;1.67;;;;;;;;;;4951831;29;20466;-72
2023/09/22 17:26:31;;;;;;;3.00;1.33;;;;;;;;;;4953806;29;20948;-72
2023/09/22 17:28:57;;;;;;;2.70;1.77;;;;;;;;;;4952550;29;20524;-72
2023/09/22 17:31:24;;;;;;;3.00;1.73;;;;;;;;;;4953815;29;20419;-72
2023/09/22 17:33:50;;;;;;;3.90;1.47;;;;;;;;;;4953304;28;20436;-72
2023/09/22 17:36:17;;;;;;;4.60;1.43;;;;;;;;;;4953550;29;20409;-72
2023/09/22 17:38:42;;;;;;;3.37;1.50;;;;;;;;;;4952092;29;20429;-72
2023/09/22 17:41:10;;;;;;;2.20;1.33;;;;;;;;;;4955615;28;20425;-72
2023/09/22 17:43:36;;;;;;;2.17;1.60;;;;;;;;;;4956554;28;20456;-72
2023/09/22 17:46:06;;;;;;;3.03;1.80;;;;;;;;;;4956676;29;20467;-72
2023/09/22 17:48:33;;;;;;;3.80;2.27;;;;;;;;;;4956711;28;20858;-71
2023/09/22 17:51:04;;;;;;;6.80;2.20;;;;;;;;;;4956903;28;20903;-71
2023/09/22 17:53:30;;;;;;;4.03;2.03;;;;;;;;;;4956874;28;20812;-71
2023/09/22 17:55:56;;;;;;;8.50;2.47;;;;;;;;;;4974466;28;20459;-71
2023/09/22 17:58:22;;;;;;;6.57;2.43;;;;;;;;;;4975936;28;20555;-71
2023/09/22 18:00:49;;;;;;;5.90;2.03;;;;;;;;;;4976032;28;20412;-73
2023/09/22 18:03:15;;;;;;;4.97;1.83;;;;;;;;;;4975723;28;20408;-72
2023/09/22 18:05:41;;;;;;;9.43;2.50;;;;;;;;;;4975655;28;20826;-72
2023/09/22 18:08:07;;;;;;;2.10;1.70;;;;;;;;;;4976091;28;20492;-72
2023/09/22 18:10:33;;;;;;;5.53;2.50;;;;;;;;;;4975936;28;20408;-72
2023/09/22 18:12:59;;;;;;;5.60;2.93;;;;;;;;;;4975577;28;20412;-72
2023/09/22 18:15:25;;;;;;;5.33;2.50;;;;;;;;;;4975661;28;20455;-72
2023/09/22 18:17:56;;;;;;;4.90;2.40;;;;;;;;;;4975621;28;20467;-72
2023/09/22 18:20:22;;;;;;;6.70;2.47;;;;;;;;;;4969540;28;20796;-72
2023/09/22 18:22:48;;;;;;;3.80;2.20;;;;;;;;;;4956409;29;20476;-72
2023/09/22 18:25:14;;;;;;;2.23;2.00;;;;;;;;;;4956089;29;20558;-72
2023/09/22 18:27:40;;;;;;;3.73;1.90;;;;;;;;;;4956325;29;20405;-72
2023/09/22 18:30:09;;;;;;;3.90;2.20;;;;;;;;;;4955102;29;20427;-72
2023/09/22 18:32:35;;;;;;;3.30;1.93;;;;;;;;;;4956148;29;20433;-72
2023/09/22 18:35:02;;;;;;;3.43;1.97;;;;;;;;;;4955852;29;20483;-72
2023/09/22 18:37:30;;;;;;;7.30;2.70;;;;;;;;;;4956159;29;20420;-72
2023/09/22 18:39:56;;;;;;;5.13;2.73;;;;;;;;;;4956071;28;20430;-72
2023/09/22 18:42:22;;;;;;;3.60;2.50;;;;;;;;;;4964206;28;20877;-72
2023/09/22 18:44:48;;;;;;;6.97;2.60;;;;;;;;;;4988315;28;20470;-72
2023/09/22 18:47:16;;;;;;;3.00;2.00;;;;;;;;;;4993737;28;20420;-72
2023/09/22 18:49:46;;;;;;;9.40;2.87;;;;;;;;;;4981463;28;20412;-72
2023/09/22 18:52:12;;;;;;;4.23;2.47;;;;;;;;;;4974356;28;20408;-72
2023/09/22 18:54:38;;;;;;;4.10;2.03;;;;;;;;;;4966221;28;20467;-72
2023/09/22 18:57:04;;;;;;;8.43;3.50;;;;;;;;;;4956582;28;20436;-72
2023/09/22 18:59:30;;;;;;;7.20;3.17;;;;;;;;;;4955819;29;20520;-72
2023/09/22 19:01:56;;;;;;;7.33;3.10;;;;;;;;;;4955498;29;20801;-72
2023/09/22 19:04:22;;;;;;;2.77;1.83;;;;;;;;;;4955249;29;20437;-72
2023/09/22 19:06:48;;;;;;;5.20;2.80;;;;;;;;;;4954327;29;20476;-72
2023/09/22 19:09:14;;;;;;;6.03;2.87;;;;;;;;;;4955610;29;20440;-72
2023/09/22 19:11:40;;;;;;;5.13;2.43;;;;;;;;;;4955585;29;20444;-72
2023/09/22 19:14:06;;;;;;;6.93;2.67;;;;;;;;;;4955100;29;20543;-72
2023/09/22 19:16:32;;;;;;;4.10;2.40;;;;;;;;;;4955392;29;20476;-72
2023/09/22 19:18:58;;;;;;;5.37;2.83;;;;;;;;;;4956053;29;20412;-72
2023/09/22 19:21:33;;;;;;;4.10;3.00;;;;;;;;;;4955561;28;20435;-72
2023/09/22 19:24:03;;;;;;;8.40;3.10;;;;;;;;;;4954345;29;20448;-72
2023/09/22 19:26:29;;;;;;;4.57;2.40;;;;;;;;;;4955580;28;20476;-72
2023/09/22 19:28:55;;;;;;;5.60;3.13;;;;;;;;;;4957989;29;20405;-72
2023/09/22 19:31:21;;;;;;;8.83;3.60;;;;;;;;;;4959455;29;20460;-72
2023/09/22 19:33:47;;;;;;;5.30;3.10;;;;;;;;;;4957692;29;20851;-72
2023/09/22 19:36:13;;;;;;;7.17;3.60;;;;;;;;;;4955545;29;20510;-72
2023/09/22 19:38:39;;;;;;;6.83;3.10;;;;;;;;;;4955360;29;20472;-72
2023/09/22 19:41:09;;;;;;;4.83;3.13;;;;;;;;;;4955375;28;20425;-72
2023/09/22 19:43:35;;;;;;;8.60;3.27;;;;;;;;;;4955091;28;20512;-72
2023/09/22 19:46:03;;;;;;;5.47;2.50;;;;;;;;;;4955157;29;20558;-72
2023/09/22 19:48:29;;;;;;;7.90;3.20;;;;;;;;;;4955137;28;20413;-72
2023/09/22 19:51:02;;;;;;;7.60;3.60;;;;;;;;;;4954991;29;20575;-72
2023/09/22 19:53:28;;;;;;;4.70;2.93;;;;;;;;;;4954712;28;20845;-72
2023/09/22 19:55:54;;;;;;;3.57;2.43;;;;;;;;;;4953622;29;20425;-72
2023/09/22 19:58:20;;;;;;;4.87;3.03;;;;;;;;;;4955032;29;20456;-72
2023/09/22 20:00:47;;;;;;;3.77;2.40;;;;;;;;;;4954696;29;20416;-72
2023/09/22 20:03:15;;;;;;;5.57;2.87;;;;;;;;;;4954638;28;20444;-72
2023/09/22 20:05:42;;;;;;;4.60;2.30;;;;;;;;;;4954646;28;20475;-72
2023/09/22 20:08:08;;;;;;;6.73;3.27;;;;;;;;;;4970565;28;20702;-72
2023/09/22 20:10:34;;;;;;;5.70;2.80;;;;;;;;;;4973904;28;20494;-72
2023/09/22 20:13:00;;;;;;;6.27;3.13;;;;;;;;;;4973910;28;20495;-72
2023/09/22 20:15:26;;;;;;;4.63;3.00;;;;;;;;;;4973735;28;20444;-72
2023/09/22 20:17:52;;;;;;;15.13;3.23;;;;;;;;;;4973924;28;20416;-72
2023/09/22 20:20:18;;;;;;;6.53;2.77;;;;;;;;;;4973805;28;20412;-71
2023/09/22 20:22:44;;;;;;;2.90;2.50;;;;;;;;;;4973767;28;20424;-72
2023/09/22 20:25:10;;;;;;;6.97;3.53;;;;;;;;;;4973514;28;20460;-72
2023/09/22 20:27:36;;;;;;;6.43;2.70;;;;;;;;;;4973531;28;20512;-72
2023/09/22 20:30:02;;;;;;;6.10;3.33;;;;;;;;;;4973658;28;20408;-72
2023/09/22 20:32:28;;;;;;;8.43;2.67;;;;;;;;;;4961546;28;20491;-72
2023/09/22 20:34:55;;;;;;;7.37;3.30;;;;;;;;;;4953982;29;20913;-72
2023/09/22 20:37:21;;;;;;;7.80;3.50;;;;;;;;;;4954494;29;20464;-72
2023/09/22 20:39:49;;;;;;;3.93;2.73;;;;;;;;;;4954444;29;20417;-72
2023/09/22 20:42:15;;;;;;;4.33;2.90;;;;;;;;;;4955956;28;20444;-72
2023/09/22 20:44:42;;;;;;;8.13;3.37;;;;;;;;;;4961331;28;20436;-72